sensor_id;sensor_type;location;lat;lon;timestamp;temperature;humidity
58153;DHT22;43967;51.634;5.566;2022-08-01T00:04:21;24.60;71.60
58153;DHT22;43967;51.634;5.566;2022-08-01T00:09:23;24.60;71.60
58153;DHT22;43967;51.634;5.566;2022-08-01T00:14:24;24.60;71.50
58153;DHT22;43967;51.634;5.566;2022-08-01T00:19:25;24.60;71.50
58153;DHT22;43967;51.634;5.566;2022-08-01T00:24:26;24.60;71.50
58153;DHT22;43967;51.634;5.566;2022-08-01T00:29:27;24.60;71.40
58153;DHT22;43967;51.634;5.566;2022-08-01T00:34:28;24.60;71.40
58153;DHT22;43967;51.634;5.566;2022-08-01T00:39:29;24.60;71.40
58153;DHT22;43967;51.634;5.566;2022-08-01T00:44:30;24.60;71.40
58153;DHT22;43967;51.634;5.566;2022-08-01T00:49:32;24.60;71.30
58153;DHT22;43967;51.634;5.566;2022-08-01T00:54:33;24.60;71.30
58153;DHT22;43967;51.634;5.566;2022-08-01T00:59:34;24.60;71.20
58153;DHT22;43967;51.634;5.566;2022-08-01T01:04:35;24.60;71.20
58153;DHT22;43967;51.634;5.566;2022-08-01T01:09:59;24.60;71.20
58153;DHT22;43967;51.634;5.566;2022-08-01T01:15:11;24.60;71.20
58153;DHT22;43967;51.634;5.566;2022-08-01T01:20:15;24.60;71.10
58153;DHT22;43967;51.634;5.566;2022-08-01T01:30:54;24.60;71.10
58153;DHT22;43967;51.634;5.566;2022-08-01T01:36:00;24.60;71.00
58153;DHT22;43967;51.634;5.566;2022-08-01T01:41:02;24.60;70.90
58153;DHT22;43967;51.634;5.566;2022-08-01T01:46:05;24.60;70.90
58153;DHT22;43967;51.634;5.566;2022-08-01T01:51:07;24.60;70.80
58153;DHT22;43967;51.634;5.566;2022-08-01T01:56:10;24.60;70.80
58153;DHT22;43967;51.634;5.566;2022-08-01T02:01:12;24.60;70.80
58153;DHT22;43967;51.634;5.566;2022-08-01T02:06:14;24.60;70.70
58153;DHT22;43967;51.634;5.566;2022-08-01T02:11:16;24.60;70.70
58153;DHT22;43967;51.634;5.566;2022-08-01T02:16:19;24.60;70.60
58153;DHT22;43967;51.634;5.566;2022-08-01T02:21:30;24.60;70.70
58153;DHT22;43967;51.634;5.566;2022-08-01T02:26:31;24.60;70.60
58153;DHT22;43967;51.634;5.566;2022-08-01T02:31:36;24.60;70.60
58153;DHT22;43967;51.634;5.566;2022-08-01T02:36:39;24.60;70.60
58153;DHT22;43967;51.634;5.566;2022-08-01T02:41:47;24.60;70.50
58153;DHT22;43967;51.634;5.566;2022-08-01T02:46:58;24.50;70.40
58153;DHT22;43967;51.634;5.566;2022-08-01T02:52:20;24.50;70.40
58153;DHT22;43967;51.634;5.566;2022-08-01T02:57:23;24.50;70.30
58153;DHT22;43967;51.634;5.566;2022-08-01T03:02:25;24.50;70.40
58153;DHT22;43967;51.634;5.566;2022-08-01T03:07:28;24.60;70.30
58153;DHT22;43967;51.634;5.566;2022-08-01T03:12:33;24.60;70.30
58153;DHT22;43967;51.634;5.566;2022-08-01T03:17:36;24.50;70.20
58153;DHT22;43967;51.634;5.566;2022-08-01T03:22:39;24.50;70.20
58153;DHT22;43967;51.634;5.566;2022-08-01T03:27:42;24.50;70.20
58153;DHT22;43967;51.634;5.566;2022-08-01T03:32:44;24.50;70.20
58153;DHT22;43967;51.634;5.566;2022-08-01T03:37:47;24.50;70.20
58153;DHT22;43967;51.634;5.566;2022-08-01T03:42:56;24.50;70.10
58153;DHT22;43967;51.634;5.566;2022-08-01T03:48:01;24.50;70.10
58153;DHT22;43967;51.634;5.566;2022-08-01T03:53:04;24.50;70.10
58153;DHT22;43967;51.634;5.566;2022-08-01T03:58:06;24.50;70.10
58153;DHT22;43967;51.634;5.566;2022-08-01T04:03:09;24.50;70.00
58153;DHT22;43967;51.634;5.566;2022-08-01T04:08:10;24.50;70.00
58153;DHT22;43967;51.634;5.566;2022-08-01T04:13:12;24.50;70.00
58153;DHT22;43967;51.634;5.566;2022-08-01T04:18:13;24.50;69.90
58153;DHT22;43967;51.634;5.566;2022-08-01T04:23:23;24.50;70.00
58153;DHT22;43967;51.634;5.566;2022-08-01T04:28:25;24.50;70.70
58153;DHT22;43967;51.634;5.566;2022-08-01T04:33:28;24.50;70.00
58153;DHT22;43967;51.634;5.566;2022-08-01T04:38:32;24.50;70.00
58153;DHT22;43967;51.634;5.566;2022-08-01T04:43:34;24.50;70.00
58153;DHT22;43967;51.634;5.566;2022-08-01T04:48:37;24.50;70.00
58153;DHT22;43967;51.634;5.566;2022-08-01T04:53:39;24.50;70.00
58153;DHT22;43967;51.634;5.566;2022-08-01T04:58:41;24.50;70.00
58153;DHT22;43967;51.634;5.566;2022-08-01T05:03:42;23.90;69.90
58153;DHT22;43967;51.634;5.566;2022-08-01T05:08:44;23.40;71.50
58153;DHT22;43967;51.634;5.566;2022-08-01T05:13:45;23.20;72.00
58153;DHT22;43967;51.634;5.566;2022-08-01T05:18:46;23.10;72.90
58153;DHT22;43967;51.634;5.566;2022-08-01T05:23:47;23.00;73.30
58153;DHT22;43967;51.634;5.566;2022-08-01T05:28:48;23.00;73.40
58153;DHT22;43967;51.634;5.566;2022-08-01T05:33:49;22.80;74.30
58153;DHT22;43967;51.634;5.566;2022-08-01T05:38:50;22.90;74.10
58153;DHT22;43967;51.634;5.566;2022-08-01T05:43:51;22.90;74.70
58153;DHT22;43967;51.634;5.566;2022-08-01T05:48:53;23.00;74.30
58153;DHT22;43967;51.634;5.566;2022-08-01T05:53:54;23.00;74.40
58153;DHT22;43967;51.634;5.566;2022-08-01T05:58:55;23.00;74.70
58153;DHT22;43967;51.634;5.566;2022-08-01T06:03:56;23.00;75.00
58153;DHT22;43967;51.634;5.566;2022-08-01T06:08:57;22.90;75.00
58153;DHT22;43967;51.634;5.566;2022-08-01T06:13:58;22.90;75.90
58153;DHT22;43967;51.634;5.566;2022-08-01T06:18:59;22.90;75.10
58153;DHT22;43967;51.634;5.566;2022-08-01T06:24:00;23.00;74.60
58153;DHT22;43967;51.634;5.566;2022-08-01T06:29:01;22.90;74.80
58153;DHT22;43967;51.634;5.566;2022-08-01T06:34:02;22.80;75.50
58153;DHT22;43967;51.634;5.566;2022-08-01T06:39:03;22.80;75.40
58153;DHT22;43967;51.634;5.566;2022-08-01T06:44:04;22.70;75.60
58153;DHT22;43967;51.634;5.566;2022-08-01T06:49:06;22.70;75.20
58153;DHT22;43967;51.634;5.566;2022-08-01T06:54:07;22.80;74.50
58153;DHT22;43967;51.634;5.566;2022-08-01T06:59:08;22.80;74.60
58153;DHT22;43967;51.634;5.566;2022-08-01T07:04:09;22.80;74.70
58153;DHT22;43967;51.634;5.566;2022-08-01T07:09:10;22.80;75.30
58153;DHT22;43967;51.634;5.566;2022-08-01T07:14:11;22.80;75.10
58153;DHT22;43967;51.634;5.566;2022-08-01T07:19:13;23.00;74.20
58153;DHT22;43967;51.634;5.566;2022-08-01T07:24:14;23.00;73.80
58153;DHT22;43967;51.634;5.566;2022-08-01T07:29:16;23.00;73.80
58153;DHT22;43967;51.634;5.566;2022-08-01T07:34:17;23.00;73.90
58153;DHT22;43967;51.634;5.566;2022-08-01T07:39:19;23.00;73.90
58153;DHT22;43967;51.634;5.566;2022-08-01T07:44:20;22.90;74.20
58153;DHT22;43967;51.634;5.566;2022-08-01T07:49:22;22.90;74.60
58153;DHT22;43967;51.634;5.566;2022-08-01T07:54:23;22.90;75.00
58153;DHT22;43967;51.634;5.566;2022-08-01T07:59:24;23.00;74.00
58153;DHT22;43967;51.634;5.566;2022-08-01T08:04:26;23.10;73.60
58153;DHT22;43967;51.634;5.566;2022-08-01T08:09:27;23.00;73.60
58153;DHT22;43967;51.634;5.566;2022-08-01T08:14:28;23.10;73.80
58153;DHT22;43967;51.634;5.566;2022-08-01T08:19:30;23.10;73.60
58153;DHT22;43967;51.634;5.566;2022-08-01T08:24:31;23.10;73.80
58153;DHT22;43967;51.634;5.566;2022-08-01T08:29:32;23.20;74.60
58153;DHT22;43967;51.634;5.566;2022-08-01T08:34:33;23.40;73.10
58153;DHT22;43967;51.634;5.566;2022-08-01T08:39:34;23.60;72.20
58153;DHT22;43967;51.634;5.566;2022-08-01T08:44:35;23.40;71.70
58153;DHT22;43967;51.634;5.566;2022-08-01T08:49:36;23.50;70.80
58153;DHT22;43967;51.634;5.566;2022-08-01T08:54:38;23.80;70.60
58153;DHT22;43967;51.634;5.566;2022-08-01T08:59:45;23.80;70.20
58153;DHT22;43967;51.634;5.566;2022-08-01T09:04:48;23.70;70.80
58153;DHT22;43967;51.634;5.566;2022-08-01T09:09:49;23.60;71.00
58153;DHT22;43967;51.634;5.566;2022-08-01T09:14:50;23.80;73.50
58153;DHT22;43967;51.634;5.566;2022-08-01T09:19:54;24.00;72.50
58153;DHT22;43967;51.634;5.566;2022-08-01T09:25:08;24.10;71.10
58153;DHT22;43967;51.634;5.566;2022-08-01T09:30:18;24.20;69.80
58153;DHT22;43967;51.634;5.566;2022-08-01T09:35:24;24.10;69.20
58153;DHT22;43967;51.634;5.566;2022-08-01T09:40:25;24.10;69.30
58153;DHT22;43967;51.634;5.566;2022-08-01T09:45:44;24.00;69.00
58153;DHT22;43967;51.634;5.566;2022-08-01T09:50:47;24.10;68.80
58153;DHT22;43967;51.634;5.566;2022-08-01T09:55:49;24.20;68.30
58153;DHT22;43967;51.634;5.566;2022-08-01T10:01:00;24.30;67.60
58153;DHT22;43967;51.634;5.566;2022-08-01T10:06:19;24.30;66.90
58153;DHT22;43967;51.634;5.566;2022-08-01T10:11:20;24.40;66.80
58153;DHT22;43967;51.634;5.566;2022-08-01T10:16:21;24.20;67.20
58153;DHT22;43967;51.634;5.566;2022-08-01T10:21:23;24.10;67.00
58153;DHT22;43967;51.634;5.566;2022-08-01T10:26:26;24.10;67.00
58153;DHT22;43967;51.634;5.566;2022-08-01T10:31:28;24.20;67.60
58153;DHT22;43967;51.634;5.566;2022-08-01T10:36:29;24.10;67.40
58153;DHT22;43967;51.634;5.566;2022-08-01T10:41:33;24.20;67.60
58153;DHT22;43967;51.634;5.566;2022-08-01T10:46:38;24.20;67.50
58153;DHT22;43967;51.634;5.566;2022-08-01T10:51:40;24.30;67.20
58153;DHT22;43967;51.634;5.566;2022-08-01T10:56:50;24.20;67.20
58153;DHT22;43967;51.634;5.566;2022-08-01T11:01:59;24.10;66.90
58153;DHT22;43967;51.634;5.566;2022-08-01T11:07:05;24.00;67.30
58153;DHT22;43967;51.634;5.566;2022-08-01T11:12:09;24.00;67.40
58153;DHT22;43967;51.634;5.566;2022-08-01T11:22:31;24.30;67.40
58153;DHT22;43967;51.634;5.566;2022-08-01T11:27:32;24.40;67.20
58153;DHT22;43967;51.634;5.566;2022-08-01T11:32:56;24.10;66.00
58153;DHT22;43967;51.634;5.566;2022-08-01T11:37:55;24.00;66.00
58153;DHT22;43967;51.634;5.566;2022-08-01T11:43:16;24.00;66.30
58153;DHT22;43967;51.634;5.566;2022-08-01T11:48:19;24.00;66.30
58153;DHT22;43967;51.634;5.566;2022-08-01T11:53:21;24.00;65.70
58153;DHT22;43967;51.634;5.566;2022-08-01T11:58:24;24.10;65.90
58153;DHT22;43967;51.634;5.566;2022-08-01T12:03:31;24.20;65.60
58153;DHT22;43967;51.634;5.566;2022-08-01T12:08:33;24.30;64.90
58153;DHT22;43967;51.634;5.566;2022-08-01T12:13:43;24.30;64.00
58153;DHT22;43967;51.634;5.566;2022-08-01T12:18:44;24.30;63.60
58153;DHT22;43967;51.634;5.566;2022-08-01T12:23:45;24.30;62.20
58153;DHT22;43967;51.634;5.566;2022-08-01T12:28:46;24.30;63.10
58153;DHT22;43967;51.634;5.566;2022-08-01T12:33:47;24.40;63.20
58153;DHT22;43967;51.634;5.566;2022-08-01T12:38:55;24.30;63.20
58153;DHT22;43967;51.634;5.566;2022-08-01T12:43:56;24.20;61.90
58153;DHT22;43967;51.634;5.566;2022-08-01T12:48:57;24.20;63.00
58153;DHT22;43967;51.634;5.566;2022-08-01T12:53:59;24.30;62.90
58153;DHT22;43967;51.634;5.566;2022-08-01T12:59:00;24.40;62.00
58153;DHT22;43967;51.634;5.566;2022-08-01T13:04:02;24.40;62.00
58153;DHT22;43967;51.634;5.566;2022-08-01T13:09:08;24.40;61.20
58153;DHT22;43967;51.634;5.566;2022-08-01T13:14:09;24.40;61.70
58153;DHT22;43967;51.634;5.566;2022-08-01T13:19:10;24.40;61.50
58153;DHT22;43967;51.634;5.566;2022-08-01T13:24:13;24.50;61.00
58153;DHT22;43967;51.634;5.566;2022-08-01T13:29:19;24.50;60.50
58153;DHT22;43967;51.634;5.566;2022-08-01T13:34:33;24.60;60.30
58153;DHT22;43967;51.634;5.566;2022-08-01T13:39:35;24.40;60.00
58153;DHT22;43967;51.634;5.566;2022-08-01T13:44:36;24.50;60.00
58153;DHT22;43967;51.634;5.566;2022-08-01T13:49:38;24.50;60.20
58153;DHT22;43967;51.634;5.566;2022-08-01T13:54:39;24.50;59.90
58153;DHT22;43967;51.634;5.566;2022-08-01T13:59:40;24.60;60.00
58153;DHT22;43967;51.634;5.566;2022-08-01T14:04:41;24.50;59.90
58153;DHT22;43967;51.634;5.566;2022-08-01T14:09:42;24.50;60.10
58153;DHT22;43967;51.634;5.566;2022-08-01T14:14:43;24.50;59.30
58153;DHT22;43967;51.634;5.566;2022-08-01T14:19:44;24.50;59.60
58153;DHT22;43967;51.634;5.566;2022-08-01T14:25:09;24.40;58.70
58153;DHT22;43967;51.634;5.566;2022-08-01T14:30:11;24.50;58.60
58153;DHT22;43967;51.634;5.566;2022-08-01T14:35:12;24.50;58.60
58153;DHT22;43967;51.634;5.566;2022-08-01T14:40:13;24.50;57.70
58153;DHT22;43967;51.634;5.566;2022-08-01T14:45:15;24.50;57.70
58153;DHT22;43967;51.634;5.566;2022-08-01T14:50:16;24.50;57.90
58153;DHT22;43967;51.634;5.566;2022-08-01T14:55:17;24.60;58.10
58153;DHT22;43967;51.634;5.566;2022-08-01T15:00:19;24.50;57.20
58153;DHT22;43967;51.634;5.566;2022-08-01T15:05:20;24.50;57.20
58153;DHT22;43967;51.634;5.566;2022-08-01T15:10:21;24.50;57.60
58153;DHT22;43967;51.634;5.566;2022-08-01T15:15:23;24.60;57.70
58153;DHT22;43967;51.634;5.566;2022-08-01T15:20:24;24.50;57.80
58153;DHT22;43967;51.634;5.566;2022-08-01T15:25:25;24.50;57.90
58153;DHT22;43967;51.634;5.566;2022-08-01T15:30:26;24.50;57.90
58153;DHT22;43967;51.634;5.566;2022-08-01T15:35:27;24.50;57.30
58153;DHT22;43967;51.634;5.566;2022-08-01T15:40:28;24.40;57.40
58153;DHT22;43967;51.634;5.566;2022-08-01T15:45:29;24.50;57.40
58153;DHT22;43967;51.634;5.566;2022-08-01T15:50:30;24.50;56.50
58153;DHT22;43967;51.634;5.566;2022-08-01T15:55:34;24.50;56.00
58153;DHT22;43967;51.634;5.566;2022-08-01T16:00:35;24.60;55.70
58153;DHT22;43967;51.634;5.566;2022-08-01T16:05:39;24.60;55.60
58153;DHT22;43967;51.634;5.566;2022-08-01T16:10:41;24.60;55.40
58153;DHT22;43967;51.634;5.566;2022-08-01T16:15:42;24.60;55.10
58153;DHT22;43967;51.634;5.566;2022-08-01T16:20:43;24.60;53.50
58153;DHT22;43967;51.634;5.566;2022-08-01T16:25:44;24.50;53.20
58153;DHT22;43967;51.634;5.566;2022-08-01T16:30:45;24.50;52.70
58153;DHT22;43967;51.634;5.566;2022-08-01T16:35:46;24.50;53.30
58153;DHT22;43967;51.634;5.566;2022-08-01T16:40:48;24.50;52.90
58153;DHT22;43967;51.634;5.566;2022-08-01T16:45:49;24.50;51.80
58153;DHT22;43967;51.634;5.566;2022-08-01T16:50:50;24.40;51.50
58153;DHT22;43967;51.634;5.566;2022-08-01T16:55:51;24.40;51.40
58153;DHT22;43967;51.634;5.566;2022-08-01T17:00:52;24.40;51.10
58153;DHT22;43967;51.634;5.566;2022-08-01T17:05:53;24.30;50.10
58153;DHT22;43967;51.634;5.566;2022-08-01T17:10:55;24.20;49.60
58153;DHT22;43967;51.634;5.566;2022-08-01T17:15:56;24.20;49.00
58153;DHT22;43967;51.634;5.566;2022-08-01T17:20:57;24.20;49.00
58153;DHT22;43967;51.634;5.566;2022-08-01T17:25:59;24.10;49.10
58153;DHT22;43967;51.634;5.566;2022-08-01T17:31:00;24.10;48.90
58153;DHT22;43967;51.634;5.566;2022-08-01T17:36:01;24.00;49.40
58153;DHT22;43967;51.634;5.566;2022-08-01T17:41:03;24.00;49.60
58153;DHT22;43967;51.634;5.566;2022-08-01T17:46:04;24.00;48.80
58153;DHT22;43967;51.634;5.566;2022-08-01T17:51:05;23.90;49.60
58153;DHT22;43967;51.634;5.566;2022-08-01T17:56:06;23.90;49.80
58153;DHT22;43967;51.634;5.566;2022-08-01T18:01:10;23.90;49.70
58153;DHT22;43967;51.634;5.566;2022-08-01T18:06:12;23.90;49.50
58153;DHT22;43967;51.634;5.566;2022-08-01T18:11:15;23.80;49.20
58153;DHT22;43967;51.634;5.566;2022-08-01T18:16:16;23.70;48.60
58153;DHT22;43967;51.634;5.566;2022-08-01T18:21:17;23.60;48.90
58153;DHT22;43967;51.634;5.566;2022-08-01T18:26:24;23.60;48.80
58153;DHT22;43967;51.634;5.566;2022-08-01T18:31:25;23.50;48.80
58153;DHT22;43967;51.634;5.566;2022-08-01T18:36:27;23.30;49.10
58153;DHT22;43967;51.634;5.566;2022-08-01T18:41:28;23.30;49.80
58153;DHT22;43967;51.634;5.566;2022-08-01T18:46:29;23.30;50.30
58153;DHT22;43967;51.634;5.566;2022-08-01T18:51:33;23.20;49.70
58153;DHT22;43967;51.634;5.566;2022-08-01T19:01:52;23.00;50.40
58153;DHT22;43967;51.634;5.566;2022-08-01T19:06:53;22.90;52.20
58153;DHT22;43967;51.634;5.566;2022-08-01T19:11:56;22.80;54.60
58153;DHT22;43967;51.634;5.566;2022-08-01T19:16:58;22.60;54.20
58153;DHT22;43967;51.634;5.566;2022-08-01T19:21:59;22.50;55.20
58153;DHT22;43967;51.634;5.566;2022-08-01T19:27:04;22.30;55.20
58153;DHT22;43967;51.634;5.566;2022-08-01T19:32:07;22.00;55.70
58153;DHT22;43967;51.634;5.566;2022-08-01T19:37:18;21.80;56.40
58153;DHT22;43967;51.634;5.566;2022-08-01T19:42:19;21.80;56.10
58153;DHT22;43967;51.634;5.566;2022-08-01T19:47:20;21.70;56.10
58153;DHT22;43967;51.634;5.566;2022-08-01T19:52:24;21.70;55.70
58153;DHT22;43967;51.634;5.566;2022-08-01T19:57:26;21.60;56.00
58153;DHT22;43967;51.634;5.566;2022-08-01T20:02:27;21.40;56.70
58153;DHT22;43967;51.634;5.566;2022-08-01T20:07:29;21.40;56.60
58153;DHT22;43967;51.634;5.566;2022-08-01T20:12:30;21.30;55.30
58153;DHT22;43967;51.634;5.566;2022-08-01T20:17:32;21.20;55.70
58153;DHT22;43967;51.634;5.566;2022-08-01T20:22:35;21.20;56.60
58153;DHT22;43967;51.634;5.566;2022-08-01T20:27:38;21.10;58.40
58153;DHT22;43967;51.634;5.566;2022-08-01T20:32:41;20.90;60.70
58153;DHT22;43967;51.634;5.566;2022-08-01T20:37:42;20.90;61.10
58153;DHT22;43967;51.634;5.566;2022-08-01T20:42:54;20.80;61.50
58153;DHT22;43967;51.634;5.566;2022-08-01T20:47:55;20.60;61.70
58153;DHT22;43967;51.634;5.566;2022-08-01T20:52:56;20.60;61.50
58153;DHT22;43967;51.634;5.566;2022-08-01T20:57:58;20.90;61.50
58153;DHT22;43967;51.634;5.566;2022-08-01T21:03:07;21.00;59.70
58153;DHT22;43967;51.634;5.566;2022-08-01T21:08:23;21.10;60.90
58153;DHT22;43967;51.634;5.566;2022-08-01T21:13:43;21.70;60.10
58153;DHT22;43967;51.634;5.566;2022-08-01T21:18:56;22.20;59.30
58153;DHT22;43967;51.634;5.566;2022-08-01T21:24:15;22.50;58.70
58153;DHT22;43967;51.634;5.566;2022-08-01T21:29:17;22.80;58.10
58153;DHT22;43967;51.634;5.566;2022-08-01T21:34:19;23.00;57.70
58153;DHT22;43967;51.634;5.566;2022-08-01T21:39:21;23.10;57.90
58153;DHT22;43967;51.634;5.566;2022-08-01T21:44:23;23.20;56.90
58153;DHT22;43967;51.634;5.566;2022-08-01T21:49:25;23.30;56.70
58153;DHT22;43967;51.634;5.566;2022-08-01T21:54:39;23.40;56.60
58153;DHT22;43967;51.634;5.566;2022-08-01T22:00:00;23.40;56.30
58153;DHT22;43967;51.634;5.566;2022-08-01T22:05:05;23.50;56.30
58153;DHT22;43967;51.634;5.566;2022-08-01T22:10:06;23.50;56.20
58153;DHT22;43967;51.634;5.566;2022-08-01T22:15:08;23.60;56.20
58153;DHT22;43967;51.634;5.566;2022-08-01T22:20:11;23.60;56.20
58153;DHT22;43967;51.634;5.566;2022-08-01T22:25:13;23.60;56.20
58153;DHT22;43967;51.634;5.566;2022-08-01T22:30:15;23.70;56.10
58153;DHT22;43967;51.634;5.566;2022-08-01T22:35:16;23.70;56.10
58153;DHT22;43967;51.634;5.566;2022-08-01T22:40:17;23.70;56.10
58153;DHT22;43967;51.634;5.566;2022-08-01T22:45:28;23.70;56.00
58153;DHT22;43967;51.634;5.566;2022-08-01T22:50:37;23.70;56.00
58153;DHT22;43967;51.634;5.566;2022-08-01T22:55:42;23.70;56.00
58153;DHT22;43967;51.634;5.566;2022-08-01T23:00:53;23.70;56.10
58153;DHT22;43967;51.634;5.566;2022-08-01T23:06:03;23.80;56.20
58153;DHT22;43967;51.634;5.566;2022-08-01T23:11:05;23.80;56.10
58153;DHT22;43967;51.634;5.566;2022-08-01T23:16:08;23.80;56.20
58153;DHT22;43967;51.634;5.566;2022-08-01T23:21:12;23.80;56.20
58153;DHT22;43967;51.634;5.566;2022-08-01T23:26:13;23.80;56.20
58153;DHT22;43967;51.634;5.566;2022-08-01T23:31:15;23.80;56.20
58153;DHT22;43967;51.634;5.566;2022-08-01T23:36:18;23.80;56.20
58153;DHT22;43967;51.634;5.566;2022-08-01T23:41:19;23.80;56.30
58153;DHT22;43967;51.634;5.566;2022-08-01T23:46:20;23.80;56.40
58153;DHT22;43967;51.634;5.566;2022-08-01T23:51:21;23.80;56.30
58153;DHT22;43967;51.634;5.566;2022-08-01T23:56:22;23.80;56.40
